sensor_id;sensor_type;location;lat;lon;timestamp;pressure;altitude;pressure_sealevel;temperature;humidity
68301;BME280;55146;47.468;18.806;2023-08-07T00:00:34;99204.16;;;15.63;81.02
68301;BME280;55146;47.468;18.806;2023-08-07T00:02:59;99210.69;;;15.67;80.60
68301;BME280;55146;47.468;18.806;2023-08-07T00:05:25;99212.78;;;15.70;79.77
68301;BME280;55146;47.468;18.806;2023-08-07T00:07:50;99227.16;;;15.72;81.24
68301;BME280;55146;47.468;18.806;2023-08-07T00:10:15;99230.56;;;15.69;79.79
68301;BME280;55146;47.468;18.806;2023-08-07T00:12:41;99224.06;;;15.73;79.63
68301;BME280;55146;47.468;18.806;2023-08-07T00:15:07;99225.84;;;15.78;79.35
68301;BME280;55146;47.468;18.806;2023-08-07T00:17:32;99221.63;;;15.63;82.01
68301;BME280;55146;47.468;18.806;2023-08-07T00:19:58;99220.28;;;15.69;80.63
68301;BME280;55146;47.468;18.806;2023-08-07T00:22:23;99223.06;;;15.69;81.52
68301;BME280;55146;47.468;18.806;2023-08-07T00:24:50;99220.28;;;15.69;80.54
68301;BME280;55146;47.468;18.806;2023-08-07T00:27:15;99215.25;;;15.71;80.61
68301;BME280;55146;47.468;18.806;2023-08-07T00:29:41;99214.13;;;15.64;81.71
68301;BME280;55146;47.468;18.806;2023-08-07T00:32:06;99213.78;;;15.65;79.86
68301;BME280;55146;47.468;18.806;2023-08-07T00:34:32;99211.66;;;15.71;80.68
68301;BME280;55146;47.468;18.806;2023-08-07T00:36:57;99221.59;;;15.72;80.15
68301;BME280;55146;47.468;18.806;2023-08-07T00:39:23;99226.00;;;15.73;80.20
68301;BME280;55146;47.468;18.806;2023-08-07T00:41:49;99220.47;;;15.73;80.80
68301;BME280;55146;47.468;18.806;2023-08-07T00:44:14;99211.84;;;15.57;80.54
68301;BME280;55146;47.468;18.806;2023-08-07T00:46:39;99209.72;;;15.63;80.17
68301;BME280;55146;47.468;18.806;2023-08-07T00:49:06;99210.03;;;15.70;80.61
68301;BME280;55146;47.468;18.806;2023-08-07T00:51:32;99221.44;;;15.77;80.35
68301;BME280;55146;47.468;18.806;2023-08-07T00:53:58;99215.25;;;15.71;80.65
68301;BME280;55146;47.468;18.806;2023-08-07T00:56:24;99211.03;;;15.65;79.67
68301;BME280;55146;47.468;18.806;2023-08-07T00:58:50;99213.75;;;15.74;80.62
68301;BME280;55146;47.468;18.806;2023-08-07T01:01:16;99206.44;;;15.69;80.09
68301;BME280;55146;47.468;18.806;2023-08-07T01:03:42;99203.50;;;15.66;79.93
68301;BME280;55146;47.468;18.806;2023-08-07T01:06:07;99208.06;;;15.70;79.82
68301;BME280;55146;47.468;18.806;2023-08-07T01:08:33;99194.38;;;15.65;79.37
68301;BME280;55146;47.468;18.806;2023-08-07T01:15:55;99196.34;;;15.65;78.89
68301;BME280;55146;47.468;18.806;2023-08-07T01:18:24;99207.44;;;15.65;78.91
68301;BME280;55146;47.468;18.806;2023-08-07T01:20:50;99201.56;;;15.66;78.50
68301;BME280;55146;47.468;18.806;2023-08-07T01:23:16;99215.06;;;15.76;78.20
68301;BME280;55146;47.468;18.806;2023-08-07T01:25:41;99219.47;;;15.69;78.20
68301;BME280;55146;47.468;18.806;2023-08-07T01:28:21;99226.34;;;15.71;78.37
68301;BME280;55146;47.468;18.806;2023-08-07T01:30:50;99232.88;;;15.58;78.60
68301;BME280;55146;47.468;18.806;2023-08-07T01:33:27;99240.06;;;15.59;78.90
68301;BME280;55146;47.468;18.806;2023-08-07T01:35:58;99239.75;;;15.61;78.97
68301;BME280;55146;47.468;18.806;2023-08-07T01:38:27;99238.91;;;15.60;78.70
68301;BME280;55146;47.468;18.806;2023-08-07T01:40:53;99235.66;;;15.58;79.24
68301;BME280;55146;47.468;18.806;2023-08-07T01:43:19;99250.97;;;15.64;77.26
68301;BME280;55146;47.468;18.806;2023-08-07T01:45:45;99243.97;;;15.67;78.17
68301;BME280;55146;47.468;18.806;2023-08-07T01:48:11;99239.56;;;15.66;77.18
68301;BME280;55146;47.468;18.806;2023-08-07T01:50:38;99246.56;;;15.63;77.64
68301;BME280;55146;47.468;18.806;2023-08-07T01:53:04;99248.53;;;15.63;77.43
68301;BME280;55146;47.468;18.806;2023-08-07T01:55:29;99248.66;;;15.75;76.54
68301;BME280;55146;47.468;18.806;2023-08-07T01:57:55;99246.75;;;15.67;76.62
68301;BME280;55146;47.468;18.806;2023-08-07T02:00:20;99241.66;;;15.77;74.84
68301;BME280;55146;47.468;18.806;2023-08-07T02:02:46;99245.87;;;15.75;75.96
68301;BME280;55146;47.468;18.806;2023-08-07T02:05:12;99247.53;;;15.76;75.76
68301;BME280;55146;47.468;18.806;2023-08-07T02:07:38;99245.44;;;15.64;77.43
68301;BME280;55146;47.468;18.806;2023-08-07T02:10:04;99240.38;;;15.66;75.40
68301;BME280;55146;47.468;18.806;2023-08-07T02:12:29;99228.16;;;15.59;76.81
68301;BME280;55146;47.468;18.806;2023-08-07T02:14:57;99241.03;;;15.63;76.12
68301;BME280;55146;47.468;18.806;2023-08-07T02:17:24;99238.56;;;15.70;75.60
68301;BME280;55146;47.468;18.806;2023-08-07T02:19:50;99248.19;;;15.64;76.22
68301;BME280;55146;47.468;18.806;2023-08-07T02:22:16;99236.59;;;15.71;75.12
68301;BME280;55146;47.468;18.806;2023-08-07T02:24:41;99245.44;;;15.73;75.50
68301;BME280;55146;47.468;18.806;2023-08-07T02:27:06;99246.06;;;15.70;74.91
68301;BME280;55146;47.468;18.806;2023-08-07T02:29:32;99239.37;;;15.62;75.15
68301;BME280;55146;47.468;18.806;2023-08-07T02:32:00;99246.37;;;15.68;75.52
68301;BME280;55146;47.468;18.806;2023-08-07T02:34:25;99242.84;;;15.59;74.58
68301;BME280;55146;47.468;18.806;2023-08-07T02:36:50;99251.47;;;15.66;74.65
68301;BME280;55146;47.468;18.806;2023-08-07T02:39:16;99249.34;;;15.63;75.20
68301;BME280;55146;47.468;18.806;2023-08-07T02:41:41;99256.69;;;15.59;74.96
68301;BME280;55146;47.468;18.806;2023-08-07T02:44:07;99242.66;;;15.64;75.35
68301;BME280;55146;47.468;18.806;2023-08-07T02:46:32;99253.87;;;15.68;74.77
68301;BME280;55146;47.468;18.806;2023-08-07T02:48:59;99244.09;;;15.45;75.48
68301;BME280;55146;47.468;18.806;2023-08-07T02:51:25;99251.78;;;15.48;76.59
68301;BME280;55146;47.468;18.806;2023-08-07T02:53:50;99257.66;;;15.46;75.33
68301;BME280;55146;47.468;18.806;2023-08-07T02:56:15;99253.56;;;15.44;75.74
68301;BME280;55146;47.468;18.806;2023-08-07T02:58:41;99249.81;;;15.39;75.53
68301;BME280;55146;47.468;18.806;2023-08-07T03:01:06;99257.16;;;15.27;76.08
68301;BME280;55146;47.468;18.806;2023-08-07T03:03:32;99244.47;;;15.34;76.35
68301;BME280;55146;47.468;18.806;2023-08-07T03:05:58;99246.72;;;15.32;76.13
68301;BME280;55146;47.468;18.806;2023-08-07T03:08:23;99244.28;;;15.31;75.25
68301;BME280;55146;47.468;18.806;2023-08-07T03:10:53;99252.75;;;15.26;76.04
68301;BME280;55146;47.468;18.806;2023-08-07T03:13:19;99250.97;;;15.21;76.67
68301;BME280;55146;47.468;18.806;2023-08-07T03:15:44;99251.63;;;15.27;75.75
68301;BME280;55146;47.468;18.806;2023-08-07T03:18:10;99251.78;;;15.13;75.75
68301;BME280;55146;47.468;18.806;2023-08-07T03:20:38;99253.75;;;15.04;78.08
68301;BME280;55146;47.468;18.806;2023-08-07T03:23:04;99258.62;;;15.16;77.23
68301;BME280;55146;47.468;18.806;2023-08-07T03:25:29;99255.84;;;14.98;76.86
68301;BME280;55146;47.468;18.806;2023-08-07T03:27:54;99251.63;;;15.10;76.87
68301;BME280;55146;47.468;18.806;2023-08-07T03:30:20;99245.75;;;15.11;76.77
68301;BME280;55146;47.468;18.806;2023-08-07T03:32:45;99255.53;;;15.09;76.06
68301;BME280;55146;47.468;18.806;2023-08-07T03:35:10;99254.22;;;15.06;76.13
68301;BME280;55146;47.468;18.806;2023-08-07T03:37:36;99252.91;;;15.04;76.34
68301;BME280;55146;47.468;18.806;2023-08-07T03:40:01;99260.72;;;15.02;76.29
68301;BME280;55146;47.468;18.806;2023-08-07T03:42:27;99266.28;;;15.02;77.26
68301;BME280;55146;47.468;18.806;2023-08-07T03:44:52;99270.84;;;15.06;77.22
68301;BME280;55146;47.468;18.806;2023-08-07T03:47:17;99269.50;;;14.95;77.03
68301;BME280;55146;47.468;18.806;2023-08-07T03:49:43;99274.09;;;15.00;76.86
68301;BME280;55146;47.468;18.806;2023-08-07T03:52:08;99275.59;;;15.06;75.70
68301;BME280;55146;47.468;18.806;2023-08-07T03:54:33;99277.66;;;15.00;76.61
68301;BME280;55146;47.468;18.806;2023-08-07T03:56:59;99276.06;;;14.99;75.74
68301;BME280;55146;47.468;18.806;2023-08-07T03:59:24;99272.28;;;14.95;76.45
68301;BME280;55146;47.468;18.806;2023-08-07T04:01:49;99280.12;;;15.02;76.89
68301;BME280;55146;47.468;18.806;2023-08-07T04:04:15;99280.12;;;15.02;75.68
68301;BME280;55146;47.468;18.806;2023-08-07T04:06:40;99284.19;;;15.13;75.18
68301;BME280;55146;47.468;18.806;2023-08-07T04:09:05;99293.50;;;15.08;77.01
68301;BME280;55146;47.468;18.806;2023-08-07T04:11:31;99294.28;;;15.00;75.82
68301;BME280;55146;47.468;18.806;2023-08-07T04:13:58;99288.25;;;15.07;75.10
68301;BME280;55146;47.468;18.806;2023-08-07T04:16:24;99287.63;;;15.10;75.34
68301;BME280;55146;47.468;18.806;2023-08-07T04:18:50;99293.50;;;15.08;74.84
68301;BME280;55146;47.468;18.806;2023-08-07T04:21:16;99293.66;;;15.20;75.65
68301;BME280;55146;47.468;18.806;2023-08-07T04:23:41;99292.34;;;15.09;75.28
68301;BME280;55146;47.468;18.806;2023-08-07T04:26:06;99299.69;;;15.14;74.88
68301;BME280;55146;47.468;18.806;2023-08-07T04:28:32;99292.03;;;15.19;73.95
68301;BME280;55146;47.468;18.806;2023-08-07T04:30:57;99307.34;;;15.25;72.61
68301;BME280;55146;47.468;18.806;2023-08-07T04:33:23;99297.28;;;15.29;72.99
68301;BME280;55146;47.468;18.806;2023-08-07T04:35:48;99298.22;;;15.25;74.67
68301;BME280;55146;47.468;18.806;2023-08-07T04:38:14;99298.56;;;15.32;74.49
68301;BME280;55146;47.468;18.806;2023-08-07T04:40:44;99296.78;;;15.27;74.16
68301;BME280;55146;47.468;18.806;2023-08-07T04:43:10;99303.62;;;15.30;74.75
68301;BME280;55146;47.468;18.806;2023-08-07T04:45:35;99316.19;;;15.36;73.06
68301;BME280;55146;47.468;18.806;2023-08-07T04:48:02;99310.97;;;15.34;74.34
68301;BME280;55146;47.468;18.806;2023-08-07T04:50:29;99310.78;;;15.31;74.44
68301;BME280;55146;47.468;18.806;2023-08-07T04:52:54;99306.56;;;15.42;72.75
68301;BME280;55146;47.468;18.806;2023-08-07T04:55:20;99309.00;;;15.44;73.03
68301;BME280;55146;47.468;18.806;2023-08-07T04:57:45;99297.91;;;15.44;73.32
68301;BME280;55146;47.468;18.806;2023-08-07T05:00:12;99303.94;;;15.46;73.58
68301;BME280;55146;47.468;18.806;2023-08-07T05:02:37;99302.31;;;15.45;73.90
68301;BME280;55146;47.468;18.806;2023-08-07T05:05:03;99303.31;;;15.49;73.51
68301;BME280;55146;47.468;18.806;2023-08-07T05:07:29;99296.31;;;15.60;73.52
68301;BME280;55146;47.468;18.806;2023-08-07T05:09:54;99289.63;;;15.69;73.26
68301;BME280;55146;47.468;18.806;2023-08-07T05:12:20;99293.84;;;15.75;72.65
68301;BME280;55146;47.468;18.806;2023-08-07T05:14:45;99292.72;;;15.76;72.46
68301;BME280;55146;47.468;18.806;2023-08-07T05:17:11;99289.78;;;15.64;72.00
68301;BME280;55146;47.468;18.806;2023-08-07T05:19:38;99300.53;;;15.74;70.84
68301;BME280;55146;47.468;18.806;2023-08-07T05:22:03;99301.38;;;15.66;72.11
68301;BME280;55146;47.468;18.806;2023-08-07T05:24:29;99301.53;;;15.78;71.05
68301;BME280;55146;47.468;18.806;2023-08-07T05:26:59;99303.47;;;15.69;71.95
68301;BME280;55146;47.468;18.806;2023-08-07T05:29:24;99304.78;;;15.72;70.15
68301;BME280;55146;47.468;18.806;2023-08-07T05:31:50;99315.72;;;15.77;70.82
68301;BME280;55146;47.468;18.806;2023-08-07T05:34:15;99303.81;;;15.68;71.11
68301;BME280;55146;47.468;18.806;2023-08-07T05:36:40;99316.22;;;15.79;69.36
68301;BME280;55146;47.468;18.806;2023-08-07T05:39:06;99323.56;;;15.66;69.75
68301;BME280;55146;47.468;18.806;2023-08-07T05:41:32;99326.00;;;15.76;70.25
68301;BME280;55146;47.468;18.806;2023-08-07T05:43:57;99323.22;;;15.85;69.74
68301;BME280;55146;47.468;18.806;2023-08-07T05:46:22;99328.59;;;15.82;70.89
68301;BME280;55146;47.468;18.806;2023-08-07T05:48:48;99335.12;;;15.86;70.97
68301;BME280;55146;47.468;18.806;2023-08-07T05:51:13;99343.44;;;15.77;69.91
68301;BME280;55146;47.468;18.806;2023-08-07T05:53:38;99345.91;;;15.78;69.82
68301;BME280;55146;47.468;18.806;2023-08-07T05:56:04;99344.41;;;15.81;71.15
68301;BME280;55146;47.468;18.806;2023-08-07T05:58:29;99347.53;;;15.80;70.83
68301;BME280;55146;47.468;18.806;2023-08-07T06:00:54;99355.50;;;15.81;70.21
68301;BME280;55146;47.468;18.806;2023-08-07T06:03:20;99351.44;;;15.78;70.90
68301;BME280;55146;47.468;18.806;2023-08-07T06:05:45;99354.56;;;15.86;70.10
68301;BME280;55146;47.468;18.806;2023-08-07T06:08:10;99356.97;;;15.87;70.07
68301;BME280;55146;47.468;18.806;2023-08-07T06:10:37;99367.41;;;16.07;69.60
68301;BME280;55146;47.468;18.806;2023-08-07T06:13:02;99365.28;;;16.13;69.52
68301;BME280;55146;47.468;18.806;2023-08-07T06:15:30;99365.59;;;16.20;69.72
68301;BME280;55146;47.468;18.806;2023-08-07T06:17:56;99365.91;;;16.27;68.44
68301;BME280;55146;47.468;18.806;2023-08-07T06:20:21;99366.38;;;16.38;67.64
68301;BME280;55146;47.468;18.806;2023-08-07T06:22:46;99375.50;;;16.47;66.89
68301;BME280;55146;47.468;18.806;2023-08-07T06:25:12;99373.66;;;16.68;66.78
68301;BME280;55146;47.468;18.806;2023-08-07T06:27:37;99372.41;;;16.86;65.82
68301;BME280;55146;47.468;18.806;2023-08-07T06:30:03;99375.37;;;16.90;66.40
68301;BME280;55146;47.468;18.806;2023-08-07T06:32:28;99373.03;;;17.01;65.51
68301;BME280;55146;47.468;18.806;2023-08-07T06:34:53;99381.69;;;16.99;67.74
68301;BME280;55146;47.468;18.806;2023-08-07T06:37:19;99385.69;;;16.81;66.68
68301;BME280;55146;47.468;18.806;2023-08-07T06:39:45;99385.25;;;16.70;67.50
68301;BME280;55146;47.468;18.806;2023-08-07T06:42:11;99389.16;;;16.78;67.11
68301;BME280;55146;47.468;18.806;2023-08-07T06:44:37;99393.84;;;16.86;68.58
68301;BME280;55146;47.468;18.806;2023-08-07T06:47:03;99390.69;;;16.96;69.38
68301;BME280;55146;47.468;18.806;2023-08-07T06:49:28;99398.84;;;17.01;67.49
68301;BME280;55146;47.468;18.806;2023-08-07T06:51:54;99395.16;;;17.18;69.14
68301;BME280;55146;47.468;18.806;2023-08-07T06:54:19;99391.66;;;17.29;68.38
68301;BME280;55146;47.468;18.806;2023-08-07T06:56:44;99396.34;;;17.37;68.68
68301;BME280;55146;47.468;18.806;2023-08-07T06:59:10;99409.41;;;17.46;66.30
68301;BME280;55146;47.468;18.806;2023-08-07T07:01:35;99417.81;;;17.28;66.38
68301;BME280;55146;47.468;18.806;2023-08-07T07:04:01;99416.88;;;17.24;67.65
68301;BME280;55146;47.468;18.806;2023-08-07T07:06:26;99410.12;;;17.34;66.06
68301;BME280;55146;47.468;18.806;2023-08-07T07:08:52;99411.12;;;17.29;66.10
68301;BME280;55146;47.468;18.806;2023-08-07T07:11:21;99416.22;;;17.27;67.44
68301;BME280;55146;47.468;18.806;2023-08-07T07:13:49;99410.50;;;17.24;66.90
68301;BME280;55146;47.468;18.806;2023-08-07T07:16:17;99412.22;;;17.37;66.85
68301;BME280;55146;47.468;18.806;2023-08-07T07:18:42;99416.44;;;17.43;65.71
68301;BME280;55146;47.468;18.806;2023-08-07T07:21:07;99424.19;;;17.29;67.45
68301;BME280;55146;47.468;18.806;2023-08-07T07:23:33;99423.38;;;17.28;66.24
68301;BME280;55146;47.468;18.806;2023-08-07T07:25:58;99419.84;;;17.19;65.46
68301;BME280;55146;47.468;18.806;2023-08-07T07:28:24;99419.41;;;17.38;64.40
68301;BME280;55146;47.468;18.806;2023-08-07T07:30:50;99415.91;;;17.50;65.19
68301;BME280;55146;47.468;18.806;2023-08-07T07:33:16;99417.44;;;17.68;66.64
68301;BME280;55146;47.468;18.806;2023-08-07T07:35:41;99428.16;;;17.78;65.10
68301;BME280;55146;47.468;18.806;2023-08-07T07:38:07;99419.78;;;17.87;65.34
68301;BME280;55146;47.468;18.806;2023-08-07T07:40:34;99422.13;;;18.17;63.50
68301;BME280;55146;47.468;18.806;2023-08-07T07:42:59;99425.66;;;18.27;63.26
68301;BME280;55146;47.468;18.806;2023-08-07T07:45:24;99426.41;;;18.69;61.82
68301;BME280;55146;47.468;18.806;2023-08-07T07:47:50;99421.09;;;18.88;61.99
68301;BME280;55146;47.468;18.806;2023-08-07T07:50:15;99433.78;;;19.34;61.14
68301;BME280;55146;47.468;18.806;2023-08-07T07:52:41;99427.41;;;19.58;57.19
68301;BME280;55146;47.468;18.806;2023-08-07T07:55:06;99440.44;;;19.66;55.59
68301;BME280;55146;47.468;18.806;2023-08-07T07:57:34;99432.97;;;19.33;56.87
68301;BME280;55146;47.468;18.806;2023-08-07T07:59:59;99443.78;;;19.35;56.90
68301;BME280;55146;47.468;18.806;2023-08-07T08:02:26;99443.06;;;19.26;56.70
68301;BME280;55146;47.468;18.806;2023-08-07T08:04:52;99440.88;;;19.19;59.77
68301;BME280;55146;47.468;18.806;2023-08-07T08:07:18;99446.81;;;19.30;58.06
68301;BME280;55146;47.468;18.806;2023-08-07T08:09:43;99449.00;;;19.12;56.77
68301;BME280;55146;47.468;18.806;2023-08-07T08:12:09;99451.22;;;19.07;58.66
68301;BME280;55146;47.468;18.806;2023-08-07T08:14:34;99450.66;;;19.13;58.90
68301;BME280;55146;47.468;18.806;2023-08-07T08:17:00;99452.53;;;19.46;57.50
68301;BME280;55146;47.468;18.806;2023-08-07T08:19:25;99461.47;;;19.51;58.67
68301;BME280;55146;47.468;18.806;2023-08-07T08:21:50;99460.66;;;19.63;57.57
68301;BME280;55146;47.468;18.806;2023-08-07T08:24:16;99465.06;;;19.64;56.76
68301;BME280;55146;47.468;18.806;2023-08-07T08:26:41;99460.22;;;19.49;56.72
68301;BME280;55146;47.468;18.806;2023-08-07T08:29:06;99477.41;;;19.51;55.96
68301;BME280;55146;47.468;18.806;2023-08-07T08:31:33;99477.53;;;19.54;55.92
68301;BME280;55146;47.468;18.806;2023-08-07T08:33:59;99479.34;;;19.26;55.50
68301;BME280;55146;47.468;18.806;2023-08-07T08:36:24;99485.03;;;19.17;57.53
68301;BME280;55146;47.468;18.806;2023-08-07T08:38:50;99485.47;;;19.07;58.51
68301;BME280;55146;47.468;18.806;2023-08-07T08:41:16;99486.81;;;18.89;58.15
68301;BME280;55146;47.468;18.806;2023-08-07T08:43:45;99492.34;;;18.77;58.95
68301;BME280;55146;47.468;18.806;2023-08-07T08:46:14;99496.31;;;18.76;58.25
68301;BME280;55146;47.468;18.806;2023-08-07T08:48:40;99500.03;;;18.80;59.20
68301;BME280;55146;47.468;18.806;2023-08-07T08:51:08;99507.16;;;18.89;58.87
68301;BME280;55146;47.468;18.806;2023-08-07T08:53:37;99507.38;;;18.84;58.29
68301;BME280;55146;47.468;18.806;2023-08-07T08:56:02;99500.63;;;18.85;60.12
68301;BME280;55146;47.468;18.806;2023-08-07T08:58:28;99518.56;;;18.96;59.92
68301;BME280;55146;47.468;18.806;2023-08-07T09:00:53;99509.50;;;18.99;58.10
68301;BME280;55146;47.468;18.806;2023-08-07T09:03:18;99517.41;;;18.97;54.99
68301;BME280;55146;47.468;18.806;2023-08-07T09:05:45;99514.16;;;19.08;57.24
68301;BME280;55146;47.468;18.806;2023-08-07T09:08:12;99519.63;;;19.04;54.77
68301;BME280;55146;47.468;18.806;2023-08-07T09:10:39;99513.56;;;19.02;57.07
68301;BME280;55146;47.468;18.806;2023-08-07T09:13:09;99516.34;;;19.47;55.08
68301;BME280;55146;47.468;18.806;2023-08-07T09:15:37;99523.00;;;19.67;56.30
68301;BME280;55146;47.468;18.806;2023-08-07T09:18:05;99529.34;;;19.31;53.97
68301;BME280;55146;47.468;18.806;2023-08-07T09:20:33;99532.69;;;19.24;55.09
68301;BME280;55146;47.468;18.806;2023-08-07T09:23:00;99532.22;;;19.34;55.63
68301;BME280;55146;47.468;18.806;2023-08-07T09:25:32;99535.25;;;19.29;55.11
68301;BME280;55146;47.468;18.806;2023-08-07T09:27:58;99528.91;;;19.08;55.10
68301;BME280;55146;47.468;18.806;2023-08-07T09:30:27;99544.41;;;18.85;57.11
68301;BME280;55146;47.468;18.806;2023-08-07T09:32:54;99544.37;;;19.06;55.65
68301;BME280;55146;47.468;18.806;2023-08-07T09:35:22;99546.97;;;19.23;57.16
68301;BME280;55146;47.468;18.806;2023-08-07T09:37:48;99552.78;;;19.18;56.13
68301;BME280;55146;47.468;18.806;2023-08-07T09:40:13;99549.84;;;19.14;55.94
68301;BME280;55146;47.468;18.806;2023-08-07T09:42:41;99550.59;;;19.23;55.71
68301;BME280;55146;47.468;18.806;2023-08-07T09:45:26;99545.81;;;19.24;57.19
68301;BME280;55146;47.468;18.806;2023-08-07T09:48:02;99557.06;;;19.15;56.57
68301;BME280;55146;47.468;18.806;2023-08-07T09:50:29;99563.19;;;19.09;57.93
68301;BME280;55146;47.468;18.806;2023-08-07T09:52:55;99564.72;;;19.06;56.62
68301;BME280;55146;47.468;18.806;2023-08-07T09:55:21;99572.44;;;18.88;57.82
68301;BME280;55146;47.468;18.806;2023-08-07T09:57:48;99557.34;;;19.02;56.95
68301;BME280;55146;47.468;18.806;2023-08-07T10:00:14;99564.25;;;18.83;57.20
68301;BME280;55146;47.468;18.806;2023-08-07T10:02:41;99576.28;;;18.96;54.27
68301;BME280;55146;47.468;18.806;2023-08-07T10:05:10;99566.37;;;18.86;56.84
68301;BME280;55146;47.468;18.806;2023-08-07T10:07:37;99565.19;;;18.75;56.12
68301;BME280;55146;47.468;18.806;2023-08-07T10:10:05;99569.44;;;18.93;54.80
68301;BME280;55146;47.468;18.806;2023-08-07T10:12:32;99573.09;;;19.06;55.66
68301;BME280;55146;47.468;18.806;2023-08-07T10:14:59;99577.91;;;18.97;54.34
68301;BME280;55146;47.468;18.806;2023-08-07T10:17:25;99574.13;;;18.81;55.70
68301;BME280;55146;47.468;18.806;2023-08-07T10:19:51;99579.66;;;18.69;54.86
68301;BME280;55146;47.468;18.806;2023-08-07T10:22:19;99570.09;;;18.57;56.62
68301;BME280;55146;47.468;18.806;2023-08-07T10:24:47;99569.78;;;18.50;58.12
68301;BME280;55146;47.468;18.806;2023-08-07T10:27:15;99591.09;;;18.46;57.83
68301;BME280;55146;47.468;18.806;2023-08-07T10:29:42;99588.31;;;18.26;58.16
68301;BME280;55146;47.468;18.806;2023-08-07T10:32:09;99578.28;;;18.04;56.44
68301;BME280;55146;47.468;18.806;2023-08-07T10:34:36;99590.56;;;18.32;57.34
68301;BME280;55146;47.468;18.806;2023-08-07T10:37:02;99588.72;;;18.36;58.79
68301;BME280;55146;47.468;18.806;2023-08-07T10:39:28;99592.06;;;18.50;59.14
68301;BME280;55146;47.468;18.806;2023-08-07T10:41:53;99595.75;;;18.84;60.80
68301;BME280;55146;47.468;18.806;2023-08-07T10:44:24;99596.34;;;19.22;58.37
68301;BME280;55146;47.468;18.806;2023-08-07T10:46:55;99599.00;;;18.86;57.22
68301;BME280;55146;47.468;18.806;2023-08-07T10:49:36;99602.38;;;19.12;60.22
68301;BME280;55146;47.468;18.806;2023-08-07T10:52:12;99604.19;;;19.41;57.91
68301;BME280;55146;47.468;18.806;2023-08-07T10:54:41;99602.19;;;19.74;58.74
68301;BME280;55146;47.468;18.806;2023-08-07T10:57:13;99603.34;;;19.73;57.38
68301;BME280;55146;47.468;18.806;2023-08-07T10:59:44;99598.44;;;19.58;58.32
68301;BME280;55146;47.468;18.806;2023-08-07T11:02:11;99605.66;;;19.59;58.05
68301;BME280;55146;47.468;18.806;2023-08-07T11:04:38;99612.53;;;19.29;57.46
68301;BME280;55146;47.468;18.806;2023-08-07T11:07:03;99602.69;;;19.44;57.34
68301;BME280;55146;47.468;18.806;2023-08-07T11:09:29;99611.56;;;19.46;59.73
68301;BME280;55146;47.468;18.806;2023-08-07T11:11:54;99617.12;;;19.46;58.25
68301;BME280;55146;47.468;18.806;2023-08-07T11:14:20;99598.78;;;19.69;58.69
68301;BME280;55146;47.468;18.806;2023-08-07T11:16:47;99605.34;;;19.40;58.41
68301;BME280;55146;47.468;18.806;2023-08-07T11:19:14;99603.94;;;19.67;56.86
68301;BME280;55146;47.468;18.806;2023-08-07T11:21:40;99607.63;;;19.59;57.61
68301;BME280;55146;47.468;18.806;2023-08-07T11:24:06;99613.22;;;19.71;58.34
68301;BME280;55146;47.468;18.806;2023-08-07T11:26:31;99613.34;;;19.29;58.54
68301;BME280;55146;47.468;18.806;2023-08-07T11:28:57;99622.13;;;18.86;59.82
68301;BME280;55146;47.468;18.806;2023-08-07T11:31:23;99622.78;;;19.04;58.79
68301;BME280;55146;47.468;18.806;2023-08-07T11:33:54;99623.16;;;18.82;60.61
68301;BME280;55146;47.468;18.806;2023-08-07T11:36:20;99622.19;;;18.98;60.79
68301;BME280;55146;47.468;18.806;2023-08-07T11:38:46;99628.28;;;19.13;60.80
68301;BME280;55146;47.468;18.806;2023-08-07T11:41:13;99642.78;;;18.85;61.62
68301;BME280;55146;47.468;18.806;2023-08-07T11:43:40;99635.19;;;18.94;60.24
68301;BME280;55146;47.468;18.806;2023-08-07T11:46:10;99635.84;;;18.71;60.53
68301;BME280;55146;47.468;18.806;2023-08-07T11:48:37;99631.88;;;18.51;60.86
68301;BME280;55146;47.468;18.806;2023-08-07T11:51:03;99638.84;;;18.36;60.86
68301;BME280;55146;47.468;18.806;2023-08-07T11:53:31;99630.28;;;18.41;61.75
68301;BME280;55146;47.468;18.806;2023-08-07T11:55:57;99623.28;;;18.65;62.63
68301;BME280;55146;47.468;18.806;2023-08-07T11:58:25;99627.87;;;19.02;61.32
68301;BME280;55146;47.468;18.806;2023-08-07T12:00:51;99622.66;;;19.01;58.31
68301;BME280;55146;47.468;18.806;2023-08-07T12:03:55;99614.09;;;19.06;59.03
68301;BME280;55146;47.468;18.806;2023-08-07T12:06:21;99619.72;;;18.76;57.17
68301;BME280;55146;47.468;18.806;2023-08-07T12:08:49;99626.19;;;18.89;56.93
68301;BME280;55146;47.468;18.806;2023-08-07T12:11:17;99628.41;;;19.16;57.96
68301;BME280;55146;47.468;18.806;2023-08-07T12:13:44;99643.09;;;19.25;57.67
68301;BME280;55146;47.468;18.806;2023-08-07T12:16:10;99627.56;;;19.36;57.15
68301;BME280;55146;47.468;18.806;2023-08-07T12:18:47;99632.75;;;19.59;58.59
68301;BME280;55146;47.468;18.806;2023-08-07T12:21:15;99611.56;;;19.46;55.88
68301;BME280;55146;47.468;18.806;2023-08-07T12:23:41;99637.41;;;19.34;55.68
68301;BME280;55146;47.468;18.806;2023-08-07T12:26:06;99630.97;;;19.21;57.85
68301;BME280;55146;47.468;18.806;2023-08-07T12:28:36;99632.16;;;19.32;57.33
68301;BME280;55146;47.468;18.806;2023-08-07T12:31:01;99635.25;;;19.07;57.96
68301;BME280;55146;47.468;18.806;2023-08-07T12:33:28;99644.09;;;19.21;59.29
68301;BME280;55146;47.468;18.806;2023-08-07T12:35:54;99645.72;;;19.43;60.10
68301;BME280;55146;47.468;18.806;2023-08-07T12:38:19;99641.94;;;19.38;58.18
68301;BME280;55146;47.468;18.806;2023-08-07T12:40:44;99644.75;;;19.38;58.75
68301;BME280;55146;47.468;18.806;2023-08-07T12:43:10;99651.47;;;19.05;58.91
68301;BME280;55146;47.468;18.806;2023-08-07T12:45:36;99640.44;;;19.29;60.15
68301;BME280;55146;47.468;18.806;2023-08-07T12:48:02;99641.47;;;19.24;57.05
68301;BME280;55146;47.468;18.806;2023-08-07T12:50:27;99642.69;;;19.15;58.22